createdAt,value
2023-10-01T00:02:01.220Z,0
2023-10-01T00:05:02.245Z,0
2023-10-01T00:08:03.317Z,0
2023-10-01T00:11:04.341Z,0
2023-10-01T00:14:05.331Z,0
2023-10-01T00:17:06.391Z,0
2023-10-01T00:20:07.385Z,0
2023-10-01T00:23:08.406Z,0
2023-10-01T00:24:25.160Z,0
2023-10-01T00:26:09.461Z,0
2023-10-01T00:29:10.441Z,0
2023-10-01T00:32:11.512Z,0
2023-10-01T00:35:12.497Z,0
2023-10-01T00:38:13.568Z,0
2023-10-01T00:41:14.536Z,0
2023-10-01T00:44:15.574Z,0
2023-10-01T00:47:16.585Z,0
2023-10-01T00:50:17.656Z,0
2023-10-01T00:53:18.634Z,0
2023-10-01T00:54:35.421Z,0
2023-10-01T00:56:19.656Z,0
2023-10-01T00:59:20.696Z,0
2023-10-01T01:02:21.710Z,0
2023-10-01T01:05:22.730Z,0
2023-10-01T01:08:23.763Z,0
2023-10-01T01:11:24.784Z,0
2023-10-01T01:14:25.812Z,0
2023-10-01T01:17:26.834Z,0
2023-10-01T01:20:27.852Z,0
2023-10-01T01:23:28.883Z,0
2023-10-01T01:24:45.675Z,0
2023-10-01T01:26:29.911Z,0
2023-10-01T01:29:30.924Z,0
2023-10-01T01:32:31.947Z,0
2023-10-01T01:35:32.976Z,0
2023-10-01T01:38:34.000Z,0
2023-10-01T01:41:35.025Z,0
2023-10-01T01:44:36.100Z,0
2023-10-01T01:47:37.078Z,0
2023-10-01T01:50:38.148Z,0
2023-10-01T01:53:39.118Z,0
2023-10-01T01:54:55.945Z,0
2023-10-01T01:56:40.194Z,0
2023-10-01T01:59:41.211Z,0
2023-10-01T02:02:42.242Z,0
2023-10-01T02:05:43.213Z,0
2023-10-01T02:08:44.296Z,0
2023-10-01T02:11:45.316Z,0
2023-10-01T02:14:46.289Z,0
2023-10-01T02:17:47.324Z,0
2023-10-01T02:20:48.344Z,0
2023-10-01T02:23:49.367Z,0
2023-10-01T02:25:06.203Z,0
2023-10-01T02:26:50.396Z,0
2023-10-01T02:35:53.511Z,0
2023-10-01T02:38:54.482Z,0
2023-10-01T02:41:55.546Z,0
2023-10-01T02:44:56.540Z,0
2023-10-01T02:47:57.550Z,0
2023-10-01T02:50:58.577Z,0
2023-10-01T02:53:59.599Z,0
2023-10-01T02:55:16.464Z,0
2023-10-01T02:57:00.687Z,0
2023-10-01T03:00:01.657Z,0
2023-10-01T03:03:02.672Z,0
2023-10-01T03:06:03.693Z,0
2023-10-01T03:09:04.726Z,0
2023-10-01T03:12:05.748Z,0
2023-10-01T03:15:06.765Z,0
2023-10-01T03:18:07.790Z,0
2023-10-01T03:21:08.822Z,0
2023-10-01T03:24:09.839Z,0
2023-10-01T03:25:26.712Z,0
2023-10-01T03:27:10.912Z,0
2023-10-01T03:30:11.888Z,0
2023-10-01T03:33:12.956Z,0
2023-10-01T03:36:13.933Z,0
2023-10-01T03:39:15.018Z,0
2023-10-01T03:42:16.035Z,0
2023-10-01T03:45:17.019Z,0
2023-10-01T03:48:18.088Z,0
2023-10-01T03:51:19.106Z,0
2023-10-01T03:54:20.076Z,0
2023-10-01T03:55:36.964Z,0
2023-10-01T03:57:21.107Z,0
2023-10-01T04:00:22.133Z,0
2023-10-01T04:03:23.156Z,0
2023-10-01T04:06:24.225Z,0
2023-10-01T04:09:25.264Z,0
2023-10-01T04:12:26.230Z,0
2023-10-01T04:15:27.250Z,0
2023-10-01T04:18:28.319Z,0
2023-10-01T04:21:29.296Z,0
2023-10-01T04:24:30.377Z,0
2023-10-01T04:25:47.227Z,0
2023-10-01T04:27:31.392Z,0
2023-10-01T04:30:32.378Z,0
2023-10-01T04:33:33.444Z,0
2023-10-01T04:36:34.420Z,0
2023-10-01T04:39:35.447Z,0
2023-10-01T04:42:36.510Z,0
2023-10-01T04:45:37.491Z,1
2023-10-01T04:48:38.518Z,2
2023-10-01T04:51:39.539Z,4
2023-10-01T04:54:40.560Z,5
2023-10-01T04:55:57.477Z,9
2023-10-01T05:00:42.664Z,17
2023-10-01T05:03:43.681Z,8
2023-10-01T05:06:44.668Z,28
2023-10-01T05:09:45.691Z,56
2023-10-01T05:12:46.703Z,43
2023-10-01T05:15:47.725Z,53
2023-10-01T05:18:48.811Z,72
2023-10-01T05:21:49.822Z,114
2023-10-01T05:24:50.858Z,146
2023-10-01T05:26:07.743Z,172
2023-10-01T05:27:51.886Z,250
2023-10-01T05:30:52.861Z,277
2023-10-01T05:33:53.931Z,314
2023-10-01T05:36:54.951Z,252
2023-10-01T05:39:55.926Z,195
2023-10-01T05:42:56.944Z,269
2023-10-01T05:45:57.981Z,337
2023-10-01T05:48:59.042Z,319
2023-10-01T05:52:00.014Z,415
2023-10-01T05:55:01.038Z,664
2023-10-01T05:56:17.996Z,949
2023-10-01T05:58:02.116Z,1116
2023-10-01T06:01:03.094Z,1109
2023-10-01T06:04:04.165Z,1080
2023-10-01T06:07:05.202Z,1371
2023-10-01T06:10:06.158Z,1344
2023-10-01T06:13:07.234Z,2200
2023-10-01T06:16:08.210Z,2355
2023-10-01T06:19:09.230Z,2096
2023-10-01T06:22:10.253Z,2316
2023-10-01T06:25:11.326Z,2451
2023-10-01T06:26:28.252Z,2709
2023-10-01T06:28:12.311Z,2629
2023-10-01T06:31:13.384Z,2417
2023-10-01T06:34:14.620Z,1845
2023-10-01T06:38:53.161Z,3374
2023-10-01T06:40:23.725Z,3006
2023-10-01T06:41:54.183Z,2634
2023-10-01T06:43:24.748Z,2566
2023-10-01T06:46:25.784Z,3915
2023-10-01T06:47:56.226Z,3852
2023-10-01T06:49:26.738Z,3096
2023-10-01T06:50:57.265Z,2674
2023-10-01T06:52:27.820Z,2708
2023-10-01T06:53:58.338Z,2677
2023-10-01T06:55:28.801Z,3011
2023-10-01T06:56:43.867Z,3132
2023-10-01T06:57:58.990Z,3265
2023-10-01T06:59:29.448Z,3329
2023-10-01T07:00:59.959Z,3520
2023-10-01T07:02:30.473Z,3934
2023-10-01T07:04:00.991Z,4350
2023-10-01T07:05:31.502Z,4520
2023-10-01T07:07:02.013Z,4827
2023-10-01T07:08:32.519Z,5335
2023-10-01T07:10:03.032Z,4926
2023-10-01T07:11:33.550Z,4207
2023-10-01T07:14:03.691Z,4584
2023-10-01T07:17:04.723Z,4750
2023-10-01T07:18:35.232Z,5194
2023-10-01T07:20:05.750Z,5035
2023-10-01T07:21:36.307Z,5642
2023-10-01T07:23:06.767Z,7758
2023-10-01T07:26:07.780Z,7087
2023-10-01T07:27:38.434Z,7118
2023-10-01T07:28:53.450Z,6962
2023-10-01T07:30:08.529Z,6655
2023-10-01T07:31:39.030Z,6776
2023-10-01T07:33:09.543Z,7276
2023-10-01T07:34:40.064Z,7554
2023-10-01T07:36:10.629Z,7734
2023-10-01T07:37:41.087Z,7963
2023-10-01T07:39:11.606Z,7835
2023-10-01T07:40:42.100Z,7661
2023-10-01T07:42:12.622Z,4355
2023-10-01T07:43:43.192Z,5611
2023-10-01T07:44:58.217Z,6370
2023-10-01T07:46:13.327Z,7153
2023-10-01T07:47:43.798Z,6137
2023-10-01T07:49:14.312Z,5588
2023-10-01T07:50:44.824Z,5831
2023-10-01T07:52:15.382Z,4760
2023-10-01T07:53:45.845Z,4268
2023-10-01T07:55:16.399Z,4778
2023-10-01T07:56:46.871Z,5134
2023-10-01T07:58:17.439Z,4667
2023-10-01T07:59:47.896Z,4269
2023-10-01T08:01:02.975Z,3621
2023-10-01T08:02:18.050Z,3728
2023-10-01T08:03:48.557Z,4047
2023-10-01T08:05:19.068Z,4275
2023-10-01T08:06:49.590Z,4638
2023-10-01T08:08:20.090Z,5277
2023-10-01T08:09:50.640Z,5522
2023-10-01T08:11:21.115Z,6465
2023-10-01T08:12:51.641Z,7066
2023-10-01T08:14:22.218Z,6911
2023-10-01T08:16:00.853Z,5927
2023-10-01T08:17:15.922Z,7980
2023-10-01T08:18:31.001Z,7978
2023-10-01T08:20:01.499Z,7393
2023-10-01T08:21:32.007Z,8339
2023-10-01T08:24:33.078Z,10807
2023-10-01T08:26:03.552Z,7938
2023-10-01T08:27:34.068Z,11876
2023-10-01T08:29:04.570Z,8527
2023-10-01T08:30:35.087Z,12253
2023-10-01T08:33:20.664Z,8311
2023-10-01T08:34:35.738Z,7901
2023-10-01T08:36:06.258Z,10662
2023-10-01T08:37:36.760Z,9221
2023-10-01T08:39:07.276Z,8654
2023-10-01T08:40:37.799Z,9486
2023-10-01T08:42:08.396Z,8685
2023-10-01T08:43:47.006Z,10855
2023-10-01T08:45:17.524Z,9688
2023-10-01T08:46:48.026Z,10195
2023-10-01T08:48:18.539Z,8465
2023-10-01T08:49:33.619Z,10091
2023-10-01T08:50:48.680Z,10784
2023-10-01T08:53:49.705Z,12998
2023-10-01T08:56:50.744Z,8536
2023-10-01T08:58:21.243Z,8122
2023-10-01T08:59:51.836Z,8393
2023-10-01T09:01:30.454Z,7295
2023-10-01T09:03:00.987Z,6772
2023-10-01T09:04:31.480Z,7420
2023-10-01T09:05:46.564Z,5159
2023-10-01T09:08:32.142Z,7881
2023-10-01T09:10:02.648Z,9999
2023-10-01T09:11:33.162Z,7712
2023-10-01T09:13:03.677Z,7930
2023-10-01T09:14:34.189Z,14442
2023-10-01T09:16:04.700Z,7519
2023-10-01T09:17:35.215Z,13048
2023-10-01T09:19:05.739Z,8264
2023-10-01T09:20:36.247Z,13202
2023-10-01T09:23:06.382Z,8879
2023-10-01T09:24:36.901Z,8424
2023-10-01T09:26:07.420Z,14802
2023-10-01T09:27:37.918Z,8248
2023-10-01T09:29:08.431Z,13365
2023-10-01T09:32:09.452Z,10086
2023-10-01T09:33:39.971Z,7575
2023-10-01T09:35:10.489Z,6568
2023-10-01T09:36:41.005Z,8992
2023-10-01T09:37:56.071Z,9807
2023-10-01T09:39:11.132Z,8801
2023-10-01T09:40:41.648Z,7809
2023-10-01T09:43:42.679Z,6637
2023-10-01T09:46:43.706Z,6389
2023-10-01T09:48:14.209Z,7605
2023-10-01T09:51:15.231Z,5597
2023-10-01T09:52:45.748Z,6094
2023-10-01T09:54:00.832Z,6446
2023-10-01T09:55:15.904Z,7075
2023-10-01T09:56:46.419Z,8348
2023-10-01T09:58:16.926Z,8780
2023-10-01T09:59:47.443Z,8506
2023-10-01T10:02:48.448Z,9926
2023-10-01T10:04:18.975Z,9108
2023-10-01T10:05:49.477Z,7579
2023-10-01T10:10:05.577Z,8954
2023-10-01T10:11:20.644Z,8380
2023-10-01T10:14:21.666Z,8325
2023-10-01T10:15:52.187Z,7351
2023-10-01T10:17:22.692Z,7996
2023-10-01T10:18:53.208Z,8068
2023-10-01T10:20:23.721Z,7532
2023-10-01T10:21:54.236Z,7631
2023-10-01T10:24:55.264Z,8380
2023-10-01T10:27:25.401Z,7695
2023-10-01T10:30:26.438Z,6944
2023-10-01T10:31:56.938Z,7473
2023-10-01T10:33:27.463Z,8514
2023-10-01T10:34:57.979Z,6832
2023-10-01T10:39:29.499Z,7499
2023-10-01T10:41:00.012Z,10763
2023-10-01T10:42:15.094Z,7224
2023-10-01T10:43:30.158Z,13546
2023-10-01T10:45:00.672Z,8351
2023-10-01T10:46:31.177Z,6185
2023-10-01T10:48:01.692Z,9940
2023-10-01T10:49:32.221Z,6565
2023-10-01T10:51:02.728Z,8140
2023-10-01T10:55:02.405Z,8625
2023-10-01T10:57:21.136Z,8432
2023-10-01T10:58:37.132Z,8410
2023-10-01T11:01:38.137Z,5485
2023-10-01T11:07:40.200Z,6385
2023-10-01T11:10:41.204Z,8356
2023-10-01T11:13:42.236Z,2458
2023-10-01T11:16:43.257Z,6472
2023-10-01T11:19:44.285Z,13179
2023-10-01T11:22:45.314Z,6945
2023-10-01T11:25:46.340Z,8765
2023-10-01T11:27:31.384Z,11686
2023-10-01T11:31:15.872Z,7623
2023-10-01T11:34:16.881Z,3184
2023-10-01T11:37:17.904Z,10676
2023-10-01T11:40:18.926Z,8271
2023-10-01T11:46:20.970Z,6037
2023-10-01T11:49:22.006Z,5900
2023-10-01T11:52:23.014Z,6034
2023-10-01T11:57:41.868Z,5586
2023-10-01T11:58:58.022Z,4958
2023-10-01T12:01:59.030Z,6470
2023-10-01T12:05:00.060Z,6222
2023-10-01T12:08:01.090Z,5291
2023-10-01T12:11:02.100Z,5403
2023-10-01T12:14:03.139Z,5589
2023-10-01T12:17:04.154Z,4404
2023-10-01T12:20:05.163Z,4903
2023-10-01T12:23:06.199Z,9524
2023-10-01T12:26:07.216Z,4905
2023-10-01T12:27:52.128Z,6019
2023-10-01T12:29:08.251Z,5873
2023-10-01T12:32:09.267Z,6830
2023-10-01T12:38:11.308Z,6906
2023-10-01T12:44:13.351Z,4407
2023-10-01T12:50:15.411Z,4382
2023-10-01T12:53:16.421Z,5534
2023-10-01T12:56:17.445Z,4315
2023-10-01T12:58:02.366Z,3570
2023-10-01T13:02:19.507Z,3391
2023-10-01T13:11:22.571Z,3851
2023-10-01T13:14:23.598Z,2918
2023-10-01T13:17:24.602Z,2186
2023-10-01T13:23:26.661Z,3867
2023-10-01T13:26:27.688Z,3098
2023-10-01T13:28:12.617Z,3156
2023-10-01T13:29:28.713Z,3630
2023-10-01T13:32:29.727Z,3279
2023-10-01T13:35:30.763Z,2827
2023-10-01T13:38:30.941Z,2951
2023-10-01T13:40:09.562Z,3032
2023-10-01T13:41:40.063Z,2446
2023-10-01T13:43:10.570Z,2878
2023-10-01T13:44:41.100Z,3538
2023-10-01T13:46:11.611Z,3329
2023-10-01T13:47:42.132Z,3094
2023-10-01T13:49:12.623Z,2809
2023-10-01T13:53:44.168Z,3393
2023-10-01T13:56:45.207Z,3383
2023-10-01T13:58:15.715Z,2610
2023-10-01T13:59:30.775Z,3505
2023-10-01T14:00:45.860Z,3630
2023-10-01T14:05:17.378Z,3787
2023-10-01T14:06:47.884Z,3467
2023-10-01T14:09:48.939Z,3698
2023-10-01T14:11:19.437Z,2209
2023-10-01T14:12:49.950Z,3607
2023-10-01T14:15:35.517Z,2639
2023-10-01T14:16:50.603Z,4757
2023-10-01T14:19:51.646Z,3289
2023-10-01T14:21:22.131Z,2998
2023-10-01T14:22:52.642Z,3142
2023-10-01T14:24:23.174Z,3094
2023-10-01T14:25:53.680Z,3014
2023-10-01T14:27:24.180Z,2835
2023-10-01T14:30:25.210Z,2851
2023-10-01T14:31:40.289Z,2857
2023-10-01T14:32:55.358Z,2743
2023-10-01T14:34:25.862Z,2514
2023-10-01T14:37:26.895Z,2761
2023-10-01T14:38:57.399Z,2971
2023-10-01T14:41:58.431Z,2512
2023-10-01T14:44:59.457Z,2835
2023-10-01T14:46:29.981Z,2316
2023-10-01T14:49:00.118Z,1860
2023-10-01T14:50:30.620Z,1565
2023-10-01T14:52:01.134Z,1444
2023-10-01T14:53:31.641Z,1853
2023-10-01T14:56:32.663Z,2178
2023-10-01T14:58:03.185Z,2267
2023-10-01T14:59:33.709Z,2285
2023-10-01T15:01:04.209Z,2179
2023-10-01T15:02:51.100Z,2087
2023-10-01T15:08:04.931Z,2411
2023-10-01T15:11:05.953Z,2645
2023-10-01T15:14:06.975Z,2354
2023-10-01T15:17:08.001Z,1370
2023-10-01T15:20:09.013Z,2487
2023-10-01T15:23:10.038Z,2447
2023-10-01T15:26:11.057Z,2394
2023-10-01T15:29:12.098Z,2276
2023-10-01T15:32:13.100Z,2302
2023-10-01T15:35:14.143Z,2071
2023-10-01T15:38:15.146Z,1909
2023-10-01T15:41:16.189Z,1870
2023-10-01T15:44:17.191Z,1775
2023-10-01T15:47:18.225Z,1755
2023-10-01T15:50:19.257Z,1516
2023-10-01T15:53:20.258Z,1477
2023-10-01T15:56:21.300Z,1204
2023-10-01T15:59:22.318Z,1086
2023-10-01T16:02:23.356Z,982
2023-10-01T16:03:39.000Z,906
2023-10-01T16:05:24.371Z,880
2023-10-01T16:08:25.379Z,885
2023-10-01T16:11:26.418Z,907
2023-10-01T16:14:27.420Z,867
2023-10-01T16:17:28.457Z,758
2023-10-01T16:20:29.481Z,650
2023-10-01T16:23:30.510Z,565
2023-10-01T16:26:31.515Z,486
2023-10-01T16:29:32.535Z,416
2023-10-01T16:32:33.569Z,368
2023-10-01T16:33:49.701Z,327
2023-10-01T16:35:34.580Z,300
2023-10-01T16:38:35.630Z,281
2023-10-01T16:41:36.640Z,249
2023-10-01T16:44:37.660Z,204
2023-10-01T16:47:38.685Z,166
2023-10-01T16:50:39.691Z,129
2023-10-01T16:53:40.717Z,99
2023-10-01T16:56:41.747Z,81
2023-10-01T16:59:42.758Z,59
2023-10-01T17:02:43.800Z,50
2023-10-01T17:03:59.941Z,30
2023-10-01T17:05:44.828Z,17
2023-10-01T17:08:45.851Z,12
2023-10-01T17:11:46.863Z,7
2023-10-01T17:14:47.878Z,4
2023-10-01T17:17:48.911Z,3
2023-10-01T17:20:49.944Z,2
2023-10-01T17:23:50.948Z,2
2023-10-01T17:26:51.982Z,0
2023-10-01T17:29:52.991Z,0
2023-10-01T17:32:54.021Z,0
2023-10-01T17:35:55.055Z,0
2023-10-01T17:38:56.079Z,0
2023-10-01T17:41:57.114Z,0
2023-10-01T17:44:58.112Z,0
2023-10-01T17:47:59.147Z,0
2023-10-01T17:51:00.157Z,0
2023-10-01T17:54:01.183Z,0
2023-10-01T17:57:02.213Z,0
2023-10-01T18:00:03.249Z,0
2023-10-01T18:03:04.244Z,0
2023-10-01T18:04:20.458Z,0
2023-10-01T18:06:05.268Z,0
2023-10-01T18:09:06.295Z,0
2023-10-01T18:12:07.313Z,0
2023-10-01T18:15:08.347Z,0
2023-10-01T18:18:09.385Z,0
2023-10-01T18:21:10.385Z,0
2023-10-01T18:24:11.410Z,0
2023-10-01T18:27:12.429Z,0
2023-10-01T18:30:13.449Z,0
2023-10-01T18:33:14.477Z,0
2023-10-01T18:34:30.699Z,0
2023-10-01T18:36:15.520Z,0
2023-10-01T18:39:16.526Z,0
2023-10-01T18:42:17.562Z,0
2023-10-01T18:45:18.596Z,0
2023-10-01T18:48:19.597Z,0
2023-10-01T18:51:20.624Z,0
2023-10-01T18:54:21.639Z,0
2023-10-01T18:57:22.661Z,0
2023-10-01T19:00:23.681Z,0
2023-10-01T19:03:24.710Z,0
2023-10-01T19:04:40.932Z,0
2023-10-01T19:06:25.737Z,0
2023-10-01T19:09:26.751Z,0
2023-10-01T19:12:27.804Z,0
2023-10-01T19:18:29.827Z,0
2023-10-01T19:21:30.853Z,0
2023-10-01T19:24:31.867Z,0
2023-10-01T19:27:32.917Z,0
2023-10-01T19:30:33.920Z,0
2023-10-01T19:34:51.180Z,0
2023-10-01T19:36:35.979Z,0
2023-10-01T19:39:36.993Z,0
2023-10-01T19:42:38.005Z,0
2023-10-01T19:45:39.036Z,0
2023-10-01T19:48:40.082Z,0
2023-10-01T19:51:41.076Z,0
2023-10-01T19:54:42.095Z,0
2023-10-01T19:57:43.142Z,0
2023-10-01T20:00:44.163Z,0
2023-10-01T20:03:45.182Z,0
2023-10-01T20:05:01.419Z,0
2023-10-01T20:06:46.213Z,0
2023-10-01T20:09:47.206Z,0
2023-10-01T20:12:48.248Z,0
2023-10-01T20:15:49.265Z,0
2023-10-01T20:18:50.303Z,0
2023-10-01T20:21:51.297Z,0
2023-10-01T20:24:52.344Z,0
2023-10-01T20:27:53.362Z,0
2023-10-01T20:30:54.392Z,0
2023-10-01T20:33:55.396Z,0
2023-10-01T20:35:11.676Z,0
2023-10-01T20:36:56.417Z,0
2023-10-01T20:39:57.436Z,0
2023-10-01T20:42:58.479Z,0
2023-10-01T20:45:59.516Z,0
2023-10-01T20:49:00.531Z,0
2023-10-01T20:52:01.519Z,0
2023-10-01T20:55:02.572Z,0
2023-10-01T20:58:03.586Z,0
2023-10-01T21:01:04.615Z,0
2023-10-01T21:04:05.618Z,0
2023-10-01T21:05:21.918Z,0
2023-10-01T21:07:06.667Z,0
2023-10-01T21:10:07.680Z,0
2023-10-01T21:13:08.689Z,0
2023-10-01T21:16:09.709Z,0
2023-10-01T21:19:10.736Z,0
2023-10-01T21:22:11.751Z,0
2023-10-01T21:25:12.773Z,0
2023-10-01T21:28:13.814Z,0
2023-10-01T21:31:14.815Z,0
2023-10-01T21:34:15.858Z,0
2023-10-01T21:35:32.152Z,0
2023-10-01T21:37:16.872Z,0
2023-10-01T21:40:17.884Z,0
2023-10-01T21:43:18.927Z,0
2023-10-01T21:46:19.927Z,0
2023-10-01T21:49:20.964Z,0
2023-10-01T21:52:21.996Z,0
2023-10-01T21:55:23.009Z,0
2023-10-01T21:58:24.027Z,0
2023-10-01T22:01:25.042Z,0
2023-10-01T22:04:26.065Z,0
2023-10-01T22:05:42.394Z,0
2023-10-01T22:07:27.090Z,0
2023-10-01T22:10:28.131Z,0
2023-10-01T22:13:29.131Z,0
2023-10-01T22:16:30.156Z,0
2023-10-01T22:19:31.206Z,0
2023-10-01T22:22:32.223Z,0
2023-10-01T22:25:33.226Z,0
2023-10-01T22:28:34.241Z,0
2023-10-01T22:31:35.296Z,0
2023-10-01T22:34:36.319Z,0
2023-10-01T22:35:52.662Z,0
2023-10-01T22:37:37.337Z,0
2023-10-01T22:40:38.363Z,0
2023-10-01T22:43:39.373Z,0
2023-10-01T22:46:40.386Z,0
2023-10-01T22:49:41.399Z,0
2023-10-01T22:52:42.453Z,0
2023-10-01T22:55:43.455Z,0
2023-10-01T22:58:44.502Z,0
2023-10-01T23:01:45.524Z,0
2023-10-01T23:04:46.515Z,0
2023-10-01T23:06:02.880Z,0
2023-10-01T23:07:47.546Z,0
2023-10-01T23:10:48.572Z,0
2023-10-01T23:13:49.597Z,0
2023-10-01T23:16:50.612Z,0
2023-10-01T23:19:51.647Z,0
2023-10-01T23:22:52.665Z,0
2023-10-01T23:25:53.674Z,0
2023-10-01T23:28:54.725Z,0
2023-10-01T23:31:55.730Z,0
2023-10-01T23:34:56.741Z,0
2023-10-01T23:36:13.124Z,0
2023-10-01T23:37:57.774Z,0
2023-10-01T23:40:58.798Z,0
2023-10-01T23:43:59.819Z,0
2023-10-01T23:47:00.847Z,0
2023-10-01T23:50:01.859Z,0
2023-10-01T23:53:02.876Z,0
2023-10-01T23:56:03.935Z,0
2023-10-01T23:59:04.936Z,0
